sensor_id;sensor_type;location;lat;lon;timestamp;pressure;altitude;pressure_sealevel;temperature;humidity
41684;BME280;27369;52.030;4.586;2022-08-19T00:00:28;-20807.34;;;-144.41;66.92
41684;BME280;27369;52.030;4.586;2022-08-19T00:02:54;-20807.34;;;-144.41;66.92
41684;BME280;27369;52.030;4.586;2022-08-19T00:05:20;-20807.34;;;-144.41;66.93
41684;BME280;27369;52.030;4.586;2022-08-19T00:07:47;-20807.34;;;-144.41;66.92
41684;BME280;27369;52.030;4.586;2022-08-19T00:10:15;-20807.34;;;-144.41;66.92
41684;BME280;27369;52.030;4.586;2022-08-19T00:12:41;-20807.34;;;-144.41;66.91
41684;BME280;27369;52.030;4.586;2022-08-19T00:15:11;-20807.34;;;-144.41;66.94
41684;BME280;27369;52.030;4.586;2022-08-19T00:17:42;-20807.34;;;-144.41;66.91
41684;BME280;27369;52.030;4.586;2022-08-19T00:20:10;-20807.34;;;-144.41;66.91
41684;BME280;27369;52.030;4.586;2022-08-19T00:22:36;-20807.34;;;-144.41;66.90
41684;BME280;27369;52.030;4.586;2022-08-19T00:25:02;-20807.34;;;-144.41;66.90
41684;BME280;27369;52.030;4.586;2022-08-19T00:27:28;-20807.34;;;-144.41;66.90
41684;BME280;27369;52.030;4.586;2022-08-19T00:29:53;-20807.34;;;-144.41;66.90
41684;BME280;27369;52.030;4.586;2022-08-19T00:32:19;-20807.34;;;-144.41;66.90
41684;BME280;27369;52.030;4.586;2022-08-19T00:34:45;-20807.34;;;-144.41;66.89
41684;BME280;27369;52.030;4.586;2022-08-19T00:37:11;-20807.34;;;-144.41;66.91
41684;BME280;27369;52.030;4.586;2022-08-19T00:39:37;-20807.34;;;-144.41;66.90
41684;BME280;27369;52.030;4.586;2022-08-19T00:42:02;-20807.34;;;-144.41;66.90
41684;BME280;27369;52.030;4.586;2022-08-19T00:44:28;-20807.34;;;-144.41;66.94
41684;BME280;27369;52.030;4.586;2022-08-19T00:46:57;-20807.34;;;-144.41;66.90
41684;BME280;27369;52.030;4.586;2022-08-19T00:51:52;-20807.34;;;-144.41;66.88
41684;BME280;27369;52.030;4.586;2022-08-19T00:54:19;-20807.34;;;-144.41;66.88
41684;BME280;27369;52.030;4.586;2022-08-19T00:56:46;-20807.34;;;-144.41;66.89
41684;BME280;27369;52.030;4.586;2022-08-19T00:59:14;-20807.34;;;-144.41;66.90
41684;BME280;27369;52.030;4.586;2022-08-19T01:01:42;-20807.34;;;-144.41;66.88
41684;BME280;27369;52.030;4.586;2022-08-19T01:04:08;-20807.34;;;-144.41;66.88
41684;BME280;27369;52.030;4.586;2022-08-19T01:06:36;-20807.34;;;-144.41;66.88
41684;BME280;27369;52.030;4.586;2022-08-19T01:09:03;-20807.34;;;-144.41;66.88
41684;BME280;27369;52.030;4.586;2022-08-19T01:11:31;-20807.34;;;-144.41;66.88
41684;BME280;27369;52.030;4.586;2022-08-19T01:13:58;-20807.34;;;-144.41;66.88
41684;BME280;27369;52.030;4.586;2022-08-19T01:16:25;-20807.34;;;-144.41;66.88
41684;BME280;27369;52.030;4.586;2022-08-19T01:18:52;-20807.34;;;-144.41;66.88
41684;BME280;27369;52.030;4.586;2022-08-19T01:24:22;-20807.34;;;-144.41;66.88
41684;BME280;27369;52.030;4.586;2022-08-19T01:26:47;-20807.34;;;-144.41;66.88
41684;BME280;27369;52.030;4.586;2022-08-19T01:29:13;-20807.34;;;-144.41;66.88
41684;BME280;27369;52.030;4.586;2022-08-19T01:31:39;-20807.34;;;-144.41;66.88
41684;BME280;27369;52.030;4.586;2022-08-19T01:34:05;-20807.34;;;-144.41;66.88
41684;BME280;27369;52.030;4.586;2022-08-19T01:36:43;-20807.34;;;-144.41;66.86
41684;BME280;27369;52.030;4.586;2022-08-19T01:39:23;-20807.34;;;-144.41;66.86
41684;BME280;27369;52.030;4.586;2022-08-19T01:41:50;-20807.34;;;-144.41;66.86
41684;BME280;27369;52.030;4.586;2022-08-19T01:44:16;-20807.34;;;-144.41;66.86
41684;BME280;27369;52.030;4.586;2022-08-19T01:46:47;-20807.34;;;-144.41;66.86
41684;BME280;27369;52.030;4.586;2022-08-19T01:49:13;-20807.34;;;-144.41;66.86
41684;BME280;27369;52.030;4.586;2022-08-19T01:51:38;-20807.34;;;-144.41;66.86
41684;BME280;27369;52.030;4.586;2022-08-19T01:54:04;-20807.34;;;-144.41;66.88
41684;BME280;27369;52.030;4.586;2022-08-19T01:56:29;-20807.34;;;-144.41;66.87
41684;BME280;27369;52.030;4.586;2022-08-19T01:59:02;-20807.34;;;-144.41;66.86
41684;BME280;27369;52.030;4.586;2022-08-19T02:01:29;-20807.34;;;-144.41;66.86
41684;BME280;27369;52.030;4.586;2022-08-19T02:03:57;-20807.34;;;-144.41;66.86
41684;BME280;27369;52.030;4.586;2022-08-19T02:06:23;-20807.34;;;-144.41;66.86
41684;BME280;27369;52.030;4.586;2022-08-19T02:08:48;-20807.34;;;-144.41;66.86
41684;BME280;27369;52.030;4.586;2022-08-19T02:11:20;-20807.34;;;-144.41;66.86
41684;BME280;27369;52.030;4.586;2022-08-19T02:13:46;-20807.34;;;-144.41;66.86
41684;BME280;27369;52.030;4.586;2022-08-19T02:16:11;-20807.34;;;-144.41;66.91
41684;BME280;27369;52.030;4.586;2022-08-19T02:18:37;-20807.34;;;-144.41;66.88
41684;BME280;27369;52.030;4.586;2022-08-19T02:21:02;-20807.34;;;-144.41;66.87
41684;BME280;27369;52.030;4.586;2022-08-19T02:23:28;-20807.34;;;-144.41;66.86
41684;BME280;27369;52.030;4.586;2022-08-19T02:25:53;-20807.34;;;-144.41;66.86
41684;BME280;27369;52.030;4.586;2022-08-19T02:28:19;-20807.34;;;-144.41;66.86
41684;BME280;27369;52.030;4.586;2022-08-19T02:30:46;-20807.34;;;-144.41;66.86
41684;BME280;27369;52.030;4.586;2022-08-19T02:33:11;-20807.34;;;-144.41;66.86
41684;BME280;27369;52.030;4.586;2022-08-19T02:35:41;-20807.34;;;-144.41;66.86
41684;BME280;27369;52.030;4.586;2022-08-19T02:38:06;-20807.34;;;-144.41;66.86
41684;BME280;27369;52.030;4.586;2022-08-19T02:41:01;-20807.34;;;-144.41;66.85
41684;BME280;27369;52.030;4.586;2022-08-19T02:43:29;-20807.34;;;-144.41;66.86
41684;BME280;27369;52.030;4.586;2022-08-19T02:45:54;-20807.34;;;-144.41;66.88
41684;BME280;27369;52.030;4.586;2022-08-19T02:48:21;-20807.34;;;-144.41;66.87
41684;BME280;27369;52.030;4.586;2022-08-19T02:50:49;-20807.34;;;-144.41;66.87
41684;BME280;27369;52.030;4.586;2022-08-19T02:53:26;-20807.34;;;-144.41;66.87
41684;BME280;27369;52.030;4.586;2022-08-19T02:55:52;-20807.34;;;-144.41;66.87
41684;BME280;27369;52.030;4.586;2022-08-19T02:58:19;-20807.34;;;-144.41;66.87
41684;BME280;27369;52.030;4.586;2022-08-19T03:00:48;-20807.34;;;-144.41;66.89
41684;BME280;27369;52.030;4.586;2022-08-19T03:03:15;-20807.34;;;-144.41;66.88
41684;BME280;27369;52.030;4.586;2022-08-19T03:05:40;-20807.34;;;-144.41;66.88
41684;BME280;27369;52.030;4.586;2022-08-19T03:08:08;-20807.34;;;-144.41;66.87
41684;BME280;27369;52.030;4.586;2022-08-19T03:10:40;-20807.34;;;-144.41;66.89
41684;BME280;27369;52.030;4.586;2022-08-19T03:13:07;-20807.34;;;-144.41;66.88
41684;BME280;27369;52.030;4.586;2022-08-19T03:15:33;-20807.34;;;-144.41;66.87
41684;BME280;27369;52.030;4.586;2022-08-19T03:17:59;-20807.34;;;-144.41;66.87
41684;BME280;27369;52.030;4.586;2022-08-19T03:20:24;-20807.34;;;-144.41;66.87
41684;BME280;27369;52.030;4.586;2022-08-19T03:22:51;-20807.34;;;-144.41;66.87
41684;BME280;27369;52.030;4.586;2022-08-19T03:25:16;-20807.34;;;-144.41;66.88
41684;BME280;27369;52.030;4.586;2022-08-19T03:27:42;-20807.34;;;-144.41;66.88
41684;BME280;27369;52.030;4.586;2022-08-19T03:30:09;-20807.34;;;-144.41;66.87
41684;BME280;27369;52.030;4.586;2022-08-19T03:32:34;-20807.34;;;-144.41;66.87
41684;BME280;27369;52.030;4.586;2022-08-19T03:35:00;-20807.34;;;-144.41;66.88
41684;BME280;27369;52.030;4.586;2022-08-19T03:37:25;-20807.34;;;-144.41;66.87
41684;BME280;27369;52.030;4.586;2022-08-19T03:39:51;-20807.34;;;-144.41;66.86
41684;BME280;27369;52.030;4.586;2022-08-19T03:42:16;-20807.34;;;-144.41;66.86
41684;BME280;27369;52.030;4.586;2022-08-19T03:44:42;-20807.34;;;-144.41;66.86
41684;BME280;27369;52.030;4.586;2022-08-19T03:47:09;-20807.34;;;-144.41;66.86
41684;BME280;27369;52.030;4.586;2022-08-19T03:49:41;-20807.34;;;-144.41;66.88
41684;BME280;27369;52.030;4.586;2022-08-19T03:52:06;-20807.34;;;-144.41;66.86
41684;BME280;27369;52.030;4.586;2022-08-19T03:54:32;-20807.34;;;-144.41;66.86
41684;BME280;27369;52.030;4.586;2022-08-19T03:56:58;-20807.34;;;-144.41;66.86
41684;BME280;27369;52.030;4.586;2022-08-19T03:59:27;-20807.34;;;-144.41;66.85
41684;BME280;27369;52.030;4.586;2022-08-19T04:01:55;-20807.34;;;-144.41;66.88
41684;BME280;27369;52.030;4.586;2022-08-19T04:04:21;-20807.34;;;-144.41;66.86
41684;BME280;27369;52.030;4.586;2022-08-19T04:06:47;-20807.34;;;-144.41;66.85
41684;BME280;27369;52.030;4.586;2022-08-19T04:09:13;-20807.34;;;-144.41;66.86
41684;BME280;27369;52.030;4.586;2022-08-19T04:11:41;-20807.34;;;-144.41;66.86
41684;BME280;27369;52.030;4.586;2022-08-19T04:14:09;-20807.34;;;-144.41;66.86
41684;BME280;27369;52.030;4.586;2022-08-19T04:16:35;-20807.34;;;-144.41;66.85
41684;BME280;27369;52.030;4.586;2022-08-19T04:19:03;-20807.34;;;-144.41;66.85
41684;BME280;27369;52.030;4.586;2022-08-19T04:21:28;-20807.34;;;-144.41;66.85
41684;BME280;27369;52.030;4.586;2022-08-19T04:23:55;-20807.34;;;-144.41;66.86
41684;BME280;27369;52.030;4.586;2022-08-19T04:26:26;-20807.34;;;-144.41;66.85
41684;BME280;27369;52.030;4.586;2022-08-19T04:28:53;-20807.34;;;-144.41;66.85
41684;BME280;27369;52.030;4.586;2022-08-19T04:31:21;-20807.34;;;-144.41;66.84
41684;BME280;27369;52.030;4.586;2022-08-19T04:33:47;-20807.34;;;-144.41;66.85
41684;BME280;27369;52.030;4.586;2022-08-19T04:36:22;-20807.34;;;-144.41;66.84
41684;BME280;27369;52.030;4.586;2022-08-19T04:38:49;-20807.34;;;-144.41;66.83
41684;BME280;27369;52.030;4.586;2022-08-19T04:41:15;-20807.34;;;-144.41;66.84
41684;BME280;27369;52.030;4.586;2022-08-19T04:43:59;-20807.34;;;-144.41;66.84
41684;BME280;27369;52.030;4.586;2022-08-19T04:46:25;-20807.34;;;-144.41;66.83
41684;BME280;27369;52.030;4.586;2022-08-19T04:48:51;-20807.34;;;-144.41;66.85
41684;BME280;27369;52.030;4.586;2022-08-19T04:51:17;-20807.34;;;-144.41;66.84
41684;BME280;27369;52.030;4.586;2022-08-19T04:53:43;-20807.34;;;-144.41;66.84
41684;BME280;27369;52.030;4.586;2022-08-19T04:56:11;-20807.34;;;-144.41;66.84
41684;BME280;27369;52.030;4.586;2022-08-19T04:58:38;-20807.34;;;-144.41;66.83
41684;BME280;27369;52.030;4.586;2022-08-19T05:01:04;-20807.34;;;-144.41;66.83
41684;BME280;27369;52.030;4.586;2022-08-19T05:03:30;-20807.34;;;-144.41;66.85
41684;BME280;27369;52.030;4.586;2022-08-19T05:06:09;-20807.34;;;-144.41;66.83
41684;BME280;27369;52.030;4.586;2022-08-19T05:08:37;-20807.34;;;-144.41;66.83
41684;BME280;27369;52.030;4.586;2022-08-19T05:11:21;-20807.34;;;-144.41;66.83
41684;BME280;27369;52.030;4.586;2022-08-19T05:13:47;-20807.34;;;-144.41;66.83
41684;BME280;27369;52.030;4.586;2022-08-19T05:16:16;-20807.34;;;-144.41;66.83
41684;BME280;27369;52.030;4.586;2022-08-19T05:18:43;-20807.34;;;-144.41;66.83
41684;BME280;27369;52.030;4.586;2022-08-19T05:21:28;-20807.34;;;-144.41;66.83
41684;BME280;27369;52.030;4.586;2022-08-19T05:24:13;-20807.34;;;-144.41;66.85
41684;BME280;27369;52.030;4.586;2022-08-19T05:26:42;-20807.34;;;-144.41;66.83
41684;BME280;27369;52.030;4.586;2022-08-19T05:29:09;-20807.34;;;-144.41;66.83
41684;BME280;27369;52.030;4.586;2022-08-19T05:31:36;-20807.34;;;-144.41;66.83
41684;BME280;27369;52.030;4.586;2022-08-19T05:34:02;-20807.34;;;-144.41;66.83
41684;BME280;27369;52.030;4.586;2022-08-19T05:36:34;-20807.34;;;-144.41;66.84
41684;BME280;27369;52.030;4.586;2022-08-19T05:39:00;-20807.34;;;-144.41;66.84
41684;BME280;27369;52.030;4.586;2022-08-19T05:41:25;-20807.34;;;-144.41;66.83
41684;BME280;27369;52.030;4.586;2022-08-19T05:43:55;-20807.34;;;-144.41;66.83
41684;BME280;27369;52.030;4.586;2022-08-19T05:46:20;-20807.34;;;-144.41;66.83
41684;BME280;27369;52.030;4.586;2022-08-19T05:48:47;-20807.34;;;-144.41;66.85
41684;BME280;27369;52.030;4.586;2022-08-19T05:51:14;-20807.34;;;-144.41;66.85
41684;BME280;27369;52.030;4.586;2022-08-19T05:53:41;-20807.34;;;-144.41;66.84
41684;BME280;27369;52.030;4.586;2022-08-19T05:56:10;-20807.34;;;-144.41;66.83
41684;BME280;27369;52.030;4.586;2022-08-19T05:58:38;-20807.34;;;-144.41;66.83
41684;BME280;27369;52.030;4.586;2022-08-19T06:01:09;-20807.34;;;-144.41;66.83
41684;BME280;27369;52.030;4.586;2022-08-19T06:03:35;-20807.34;;;-144.41;66.84
41684;BME280;27369;52.030;4.586;2022-08-19T06:06:03;-20807.34;;;-144.41;66.83
41684;BME280;27369;52.030;4.586;2022-08-19T06:08:29;-20807.34;;;-144.41;66.84
41684;BME280;27369;52.030;4.586;2022-08-19T06:10:55;-20807.34;;;-144.41;66.83
41684;BME280;27369;52.030;4.586;2022-08-19T06:13:21;-20807.34;;;-144.41;66.83
41684;BME280;27369;52.030;4.586;2022-08-19T06:15:48;-20807.34;;;-144.41;66.83
41684;BME280;27369;52.030;4.586;2022-08-19T06:18:15;-20807.34;;;-144.41;66.83
41684;BME280;27369;52.030;4.586;2022-08-19T06:20:41;-20807.34;;;-144.41;66.83
41684;BME280;27369;52.030;4.586;2022-08-19T06:23:08;-20807.34;;;-144.41;66.83
41684;BME280;27369;52.030;4.586;2022-08-19T06:25:35;-20807.34;;;-144.41;66.84
41684;BME280;27369;52.030;4.586;2022-08-19T06:28:01;-20807.34;;;-144.41;66.83
41684;BME280;27369;52.030;4.586;2022-08-19T06:30:26;-20807.34;;;-144.41;66.84
41684;BME280;27369;52.030;4.586;2022-08-19T06:32:52;-20807.34;;;-144.41;66.83
41684;BME280;27369;52.030;4.586;2022-08-19T06:35:17;-20807.34;;;-144.41;66.84
41684;BME280;27369;52.030;4.586;2022-08-19T06:37:43;-20807.34;;;-144.41;66.84
41684;BME280;27369;52.030;4.586;2022-08-19T06:40:09;-20807.34;;;-144.41;66.85
41684;BME280;27369;52.030;4.586;2022-08-19T06:42:36;-20807.34;;;-144.41;66.85
41684;BME280;27369;52.030;4.586;2022-08-19T06:45:04;-20807.34;;;-144.41;66.84
41684;BME280;27369;52.030;4.586;2022-08-19T06:47:30;-20807.34;;;-144.41;66.85
41684;BME280;27369;52.030;4.586;2022-08-19T06:49:58;-20807.34;;;-144.41;66.84
41684;BME280;27369;52.030;4.586;2022-08-19T06:52:32;-20807.34;;;-144.41;66.85
41684;BME280;27369;52.030;4.586;2022-08-19T06:54:59;-20807.34;;;-144.41;66.85
41684;BME280;27369;52.030;4.586;2022-08-19T06:57:25;-20807.34;;;-144.41;66.86
41684;BME280;27369;52.030;4.586;2022-08-19T06:59:51;-20807.34;;;-144.41;66.86
41684;BME280;27369;52.030;4.586;2022-08-19T07:02:16;-20807.34;;;-144.41;66.88
41684;BME280;27369;52.030;4.586;2022-08-19T07:04:42;-20807.34;;;-144.41;66.88
41684;BME280;27369;52.030;4.586;2022-08-19T07:07:10;-20807.34;;;-144.41;66.89
41684;BME280;27369;52.030;4.586;2022-08-19T07:09:39;-20807.34;;;-144.41;66.90
41684;BME280;27369;52.030;4.586;2022-08-19T07:12:07;-20807.34;;;-144.41;66.90
41684;BME280;27369;52.030;4.586;2022-08-19T07:14:34;-20807.34;;;-144.41;66.89
41684;BME280;27369;52.030;4.586;2022-08-19T07:17:04;-20807.34;;;-144.41;66.90
41684;BME280;27369;52.030;4.586;2022-08-19T07:19:30;-20807.34;;;-144.41;66.91
41684;BME280;27369;52.030;4.586;2022-08-19T07:21:57;-20807.34;;;-144.41;66.91
41684;BME280;27369;52.030;4.586;2022-08-19T07:24:26;-20807.34;;;-144.41;66.91
41684;BME280;27369;52.030;4.586;2022-08-19T07:26:54;-20807.34;;;-144.41;66.91
41684;BME280;27369;52.030;4.586;2022-08-19T07:29:21;-20807.34;;;-144.41;66.91
41684;BME280;27369;52.030;4.586;2022-08-19T07:31:50;-20807.34;;;-144.41;66.92
41684;BME280;27369;52.030;4.586;2022-08-19T07:34:16;-20807.34;;;-144.41;66.93
41684;BME280;27369;52.030;4.586;2022-08-19T07:36:43;-20807.34;;;-144.41;66.93
41684;BME280;27369;52.030;4.586;2022-08-19T07:39:10;-20807.34;;;-144.41;66.94
41684;BME280;27369;52.030;4.586;2022-08-19T07:41:36;-20807.34;;;-144.41;66.95
41684;BME280;27369;52.030;4.586;2022-08-19T07:44:02;-20807.34;;;-144.41;66.95
41684;BME280;27369;52.030;4.586;2022-08-19T07:46:30;-20807.34;;;-144.41;66.96
41684;BME280;27369;52.030;4.586;2022-08-19T07:48:56;-20807.34;;;-144.41;66.96
41684;BME280;27369;52.030;4.586;2022-08-19T07:51:22;-20807.34;;;-144.41;66.96
41684;BME280;27369;52.030;4.586;2022-08-19T07:53:48;-20807.34;;;-144.41;66.98
41684;BME280;27369;52.030;4.586;2022-08-19T07:56:15;-20807.34;;;-144.41;66.99
41684;BME280;27369;52.030;4.586;2022-08-19T07:58:42;-20807.34;;;-144.41;67.00
41684;BME280;27369;52.030;4.586;2022-08-19T08:01:10;-20807.34;;;-144.41;67.01
41684;BME280;27369;52.030;4.586;2022-08-19T08:03:36;-20807.34;;;-144.41;67.02
41684;BME280;27369;52.030;4.586;2022-08-19T08:06:21;-20807.34;;;-144.41;67.04
41684;BME280;27369;52.030;4.586;2022-08-19T08:09:06;-20807.34;;;-144.41;67.05
41684;BME280;27369;52.030;4.586;2022-08-19T08:11:50;-20807.34;;;-144.41;67.06
41684;BME280;27369;52.030;4.586;2022-08-19T08:14:22;-20807.34;;;-144.41;67.07
41684;BME280;27369;52.030;4.586;2022-08-19T08:16:49;-20807.34;;;-144.41;67.07
41684;BME280;27369;52.030;4.586;2022-08-19T08:19:17;-20807.34;;;-144.41;67.07
41684;BME280;27369;52.030;4.586;2022-08-19T08:21:43;-20807.34;;;-144.41;67.08
41684;BME280;27369;52.030;4.586;2022-08-19T08:24:08;-20807.34;;;-144.41;67.10
41684;BME280;27369;52.030;4.586;2022-08-19T08:26:34;-20807.34;;;-144.41;67.11
41684;BME280;27369;52.030;4.586;2022-08-19T08:28:59;-20807.34;;;-144.41;67.13
41684;BME280;27369;52.030;4.586;2022-08-19T08:31:25;-20807.34;;;-144.41;67.15
41684;BME280;27369;52.030;4.586;2022-08-19T08:33:50;-20807.34;;;-144.41;67.17
41684;BME280;27369;52.030;4.586;2022-08-19T08:36:17;-20807.34;;;-144.41;67.18
41684;BME280;27369;52.030;4.586;2022-08-19T08:38:43;-20807.34;;;-144.41;67.20
41684;BME280;27369;52.030;4.586;2022-08-19T08:41:38;-20807.34;;;-144.41;67.19
41684;BME280;27369;52.030;4.586;2022-08-19T08:44:13;-20807.34;;;-144.41;67.19
41684;BME280;27369;52.030;4.586;2022-08-19T08:46:47;-20807.34;;;-144.41;67.21
41684;BME280;27369;52.030;4.586;2022-08-19T08:52:00;-20807.34;;;-144.41;67.27
41684;BME280;27369;52.030;4.586;2022-08-19T08:54:34;-20807.34;;;-144.41;67.29
41684;BME280;27369;52.030;4.586;2022-08-19T08:57:00;-20807.34;;;-144.41;67.33
41684;BME280;27369;52.030;4.586;2022-08-19T08:59:35;-20807.34;;;-144.41;67.39
41684;BME280;27369;52.030;4.586;2022-08-19T09:02:02;-20807.34;;;-144.41;67.42
41684;BME280;27369;52.030;4.586;2022-08-19T09:04:28;-20807.34;;;-144.41;67.45
41684;BME280;27369;52.030;4.586;2022-08-19T09:09:39;-20807.34;;;-144.41;67.42
41684;BME280;27369;52.030;4.586;2022-08-19T09:17:09;-20807.34;;;-144.41;67.50
41684;BME280;27369;52.030;4.586;2022-08-19T09:20:11;-20807.34;;;-144.41;67.61
41684;BME280;27369;52.030;4.586;2022-08-19T09:22:39;-20807.34;;;-144.41;67.64
41684;BME280;27369;52.030;4.586;2022-08-19T09:25:07;-20807.34;;;-144.41;67.65
41684;BME280;27369;52.030;4.586;2022-08-19T09:27:33;-20807.34;;;-144.41;67.72
41684;BME280;27369;52.030;4.586;2022-08-19T09:29:58;-20807.34;;;-144.41;67.83
41684;BME280;27369;52.030;4.586;2022-08-19T09:32:24;-20807.34;;;-144.41;67.96
41684;BME280;27369;52.030;4.586;2022-08-19T09:34:52;-20807.34;;;-144.41;68.07
41684;BME280;27369;52.030;4.586;2022-08-19T09:37:24;-20807.34;;;-144.41;68.23
41684;BME280;27369;52.030;4.586;2022-08-19T09:39:49;-20807.34;;;-144.41;68.33
41684;BME280;27369;52.030;4.586;2022-08-19T09:42:15;-20807.34;;;-144.41;68.44
41684;BME280;27369;52.030;4.586;2022-08-19T09:44:41;-20807.34;;;-144.41;68.53
41684;BME280;27369;52.030;4.586;2022-08-19T09:47:09;-20807.34;;;-144.41;68.64
41684;BME280;27369;52.030;4.586;2022-08-19T09:49:35;-20807.34;;;-144.41;68.76
41684;BME280;27369;52.030;4.586;2022-08-19T09:52:01;-20807.34;;;-144.41;68.85
41684;BME280;27369;52.030;4.586;2022-08-19T09:54:26;-20807.34;;;-144.41;68.99
41684;BME280;27369;52.030;4.586;2022-08-19T09:56:52;-20807.34;;;-144.41;69.06
41684;BME280;27369;52.030;4.586;2022-08-19T09:59:18;-20807.34;;;-144.41;69.15
41684;BME280;27369;52.030;4.586;2022-08-19T10:01:44;-20807.34;;;-144.41;69.24
41684;BME280;27369;52.030;4.586;2022-08-19T10:04:09;-20807.34;;;-144.41;69.36
41684;BME280;27369;52.030;4.586;2022-08-19T10:06:35;-20807.34;;;-144.41;69.47
41684;BME280;27369;52.030;4.586;2022-08-19T10:09:02;-20807.34;;;-144.41;69.52
41684;BME280;27369;52.030;4.586;2022-08-19T10:11:29;-20807.34;;;-144.41;69.52
41684;BME280;27369;52.030;4.586;2022-08-19T10:13:54;-20807.34;;;-144.41;69.48
41684;BME280;27369;52.030;4.586;2022-08-19T10:16:21;-20807.34;;;-144.41;69.45
41684;BME280;27369;52.030;4.586;2022-08-19T10:18:49;-20807.34;;;-144.41;69.45
41684;BME280;27369;52.030;4.586;2022-08-19T10:21:18;-20807.34;;;-144.41;69.47
41684;BME280;27369;52.030;4.586;2022-08-19T10:23:47;-20807.34;;;-144.41;69.59
41684;BME280;27369;52.030;4.586;2022-08-19T10:26:16;-20807.34;;;-144.41;69.63
41684;BME280;27369;52.030;4.586;2022-08-19T10:28:42;-20807.34;;;-144.41;69.71
41684;BME280;27369;52.030;4.586;2022-08-19T10:31:11;-20807.34;;;-144.41;69.80
41684;BME280;27369;52.030;4.586;2022-08-19T10:33:37;-20807.34;;;-144.41;69.96
41684;BME280;27369;52.030;4.586;2022-08-19T10:36:09;-20807.34;;;-144.41;70.00
41684;BME280;27369;52.030;4.586;2022-08-19T10:38:36;-20807.34;;;-144.41;70.33
41684;BME280;27369;52.030;4.586;2022-08-19T10:41:17;-20807.34;;;-144.41;70.46
41684;BME280;27369;52.030;4.586;2022-08-19T10:43:43;-20807.34;;;-144.41;70.58
41684;BME280;27369;52.030;4.586;2022-08-19T10:46:13;-20807.34;;;-144.41;70.63
41684;BME280;27369;52.030;4.586;2022-08-19T10:48:39;-20807.34;;;-144.41;70.82
41684;BME280;27369;52.030;4.586;2022-08-19T10:51:05;-20807.34;;;-144.41;71.18
41684;BME280;27369;52.030;4.586;2022-08-19T10:53:50;-20807.34;;;-144.41;71.84
41684;BME280;27369;52.030;4.586;2022-08-19T10:56:16;-20807.34;;;-144.41;72.43
41684;BME280;27369;52.030;4.586;2022-08-19T10:59:00;-20807.34;;;-144.41;73.24
41684;BME280;27369;52.030;4.586;2022-08-19T11:01:26;-20807.34;;;-144.41;73.94
41684;BME280;27369;52.030;4.586;2022-08-19T11:03:52;-20807.34;;;-144.41;74.42
41684;BME280;27369;52.030;4.586;2022-08-19T11:06:18;-20807.34;;;-144.41;74.77
41684;BME280;27369;52.030;4.586;2022-08-19T11:08:45;-20807.34;;;-144.41;74.74
41684;BME280;27369;52.030;4.586;2022-08-19T11:11:11;-20807.34;;;-144.41;75.15
41684;BME280;27369;52.030;4.586;2022-08-19T11:13:39;-20807.34;;;-144.41;75.61
41684;BME280;27369;52.030;4.586;2022-08-19T11:16:06;-20807.34;;;-144.41;75.81
41684;BME280;27369;52.030;4.586;2022-08-19T11:18:35;-20807.34;;;-144.41;75.54
41684;BME280;27369;52.030;4.586;2022-08-19T11:23:37;-20807.34;;;-144.41;75.76
41684;BME280;27369;52.030;4.586;2022-08-19T11:26:03;-20807.34;;;-144.41;75.97
41684;BME280;27369;52.030;4.586;2022-08-19T11:28:29;-20807.34;;;-144.41;75.97
41684;BME280;27369;52.030;4.586;2022-08-19T11:30:54;-20807.34;;;-144.41;75.74
41684;BME280;27369;52.030;4.586;2022-08-19T11:33:19;-20807.34;;;-144.41;75.76
41684;BME280;27369;52.030;4.586;2022-08-19T11:35:45;-20807.34;;;-144.41;75.72
41684;BME280;27369;52.030;4.586;2022-08-19T11:38:10;-20807.34;;;-144.41;75.49
41684;BME280;27369;52.030;4.586;2022-08-19T11:40:37;-20807.34;;;-144.41;75.33
41684;BME280;27369;52.030;4.586;2022-08-19T11:43:02;-20807.34;;;-144.41;75.21
41684;BME280;27369;52.030;4.586;2022-08-19T11:45:28;-20807.34;;;-144.41;75.24
41684;BME280;27369;52.030;4.586;2022-08-19T11:47:54;-20807.34;;;-144.41;74.96
41684;BME280;27369;52.030;4.586;2022-08-19T11:50:19;-20807.34;;;-144.41;75.21
41684;BME280;27369;52.030;4.586;2022-08-19T11:52:45;-20807.34;;;-144.41;75.36
41684;BME280;27369;52.030;4.586;2022-08-19T11:55:11;-20807.34;;;-144.41;74.92
41684;BME280;27369;52.030;4.586;2022-08-19T11:57:38;-20807.34;;;-144.41;75.09
41684;BME280;27369;52.030;4.586;2022-08-19T12:00:06;-20807.34;;;-144.41;74.98
41684;BME280;27369;52.030;4.586;2022-08-19T12:02:33;-20807.34;;;-144.41;75.40
41684;BME280;27369;52.030;4.586;2022-08-19T12:04:59;-20807.34;;;-144.41;75.25
41684;BME280;27369;52.030;4.586;2022-08-19T12:07:26;-20807.34;;;-144.41;75.14
41684;BME280;27369;52.030;4.586;2022-08-19T12:09:52;-20807.34;;;-144.41;75.12
41684;BME280;27369;52.030;4.586;2022-08-19T12:12:17;-20807.34;;;-144.41;75.36
41684;BME280;27369;52.030;4.586;2022-08-19T12:14:42;-20807.34;;;-144.41;74.90
41684;BME280;27369;52.030;4.586;2022-08-19T12:17:08;-20807.34;;;-144.41;74.92
41684;BME280;27369;52.030;4.586;2022-08-19T12:19:36;-20807.34;;;-144.41;75.36
41684;BME280;27369;52.030;4.586;2022-08-19T12:22:02;-20807.34;;;-144.41;76.80
41684;BME280;27369;52.030;4.586;2022-08-19T12:24:31;-20807.34;;;-144.41;77.44
41684;BME280;27369;52.030;4.586;2022-08-19T12:26:57;-20807.34;;;-144.41;77.21
41684;BME280;27369;52.030;4.586;2022-08-19T12:29:24;-20807.34;;;-144.41;77.41
41684;BME280;27369;52.030;4.586;2022-08-19T12:31:53;-20807.34;;;-144.41;77.82
41684;BME280;27369;52.030;4.586;2022-08-19T12:34:19;-20807.34;;;-144.41;77.91
41684;BME280;27369;52.030;4.586;2022-08-19T12:36:45;-20807.34;;;-144.41;78.30
41684;BME280;27369;52.030;4.586;2022-08-19T12:39:10;-20807.34;;;-144.41;78.05
41684;BME280;27369;52.030;4.586;2022-08-19T12:41:36;-20807.34;;;-144.41;79.12
41684;BME280;27369;52.030;4.586;2022-08-19T12:44:02;-20807.34;;;-144.41;79.93
41684;BME280;27369;52.030;4.586;2022-08-19T12:46:28;-20807.34;;;-144.41;80.41
41684;BME280;27369;52.030;4.586;2022-08-19T12:48:53;-20807.34;;;-144.41;80.41
41684;BME280;27369;52.030;4.586;2022-08-19T12:51:19;-20807.34;;;-144.41;80.44